Giove Jet — IJNX — position and weather

sailwx.info

Track history (hours):
 
Tides and Currents Weather Stations Pressure Air Temp Water Temp Dewpoint Dewpoint Depression Visibility Wind Speed Wind Dir Waves Ship Positions

Giove Jet

Last reported at 2015-Aug-02 16:21 UTC. Time now 2015-Aug-02 22:29 UTC.
Position N 40°50' E 014°14'.

Length 33 m; draft 1.2 m.

MMSI: 247049500.

Date/timePositionNaut miles runAvg speedWind from/ knotsBaromVisibWave heightAir tempDewpointWater temp
2015-Aug-02 16:21N 40°50' E 014°14'1113.3
2015-Aug-02 15:33N 40°44' E 014°02'4 3.9
2015-Aug-02 14:33N 40°45' E 013°56'0 0.0
2015-Aug-02 13:33N 40°45' E 013°56'0 0.0
2015-Aug-02 12:33N 40°45' E 013°56'0 0.1
2015-Aug-02 11:33N 40°45' E 013°56'1412.7
2015-Aug-02 10:28N 40°50' E 014°14'3 2.4
2015-Aug-02 09:21N 40°49' E 014°17'1620.6
2015-Aug-02 08:34N 40°45' E 013°56'6 6.0
2015-Aug-02 07:34N 40°45' E 014°04'8 0.6
2015-Aug-01 16:24N 40°50' E 014°14'2 2.6
2015-Aug-01 15:32N 40°50' E 014°17'1616.7
2015-Aug-01 14:33N 40°45' E 013°56'13 6.4
2015-Aug-01 12:32N 40°48' E 014°13'1313.4
2015-Aug-01 11:33N 40°45' E 013°56'1412.4
2015-Aug-01 10:26N 40°50' E 014°14'2 2.3
2015-Aug-01 09:20N 40°50' E 014°17'1620.9
2015-Aug-01 08:33N 40°45' E 013°56'6 6.0
2015-Aug-01 07:34N 40°45' E 014°04'3 0.2
2015-Jul-31 17:34N 40°46' E 014°00'3 3.3
2015-Jul-31 16:33N 40°45' E 013°56'1515.0
2015-Jul-31 15:33N 40°49' E 014°16'8 8.5
2015-Jul-31 14:34N 40°46' E 014°05'1010.1
2015-Jul-31 13:33N 40°44' E 013°52'0 0.0
2015-Jul-31 12:30N 40°44' E 013°52'5 5.7
2015-Jul-31 11:33N 40°46' E 013°58'1510.8
2015-Jul-31 10:11N 40°49' E 014°17'1626.0
2015-Jul-31 09:34N 40°46' E 013°56'3 3.1
2015-Jul-31 08:34N 40°46' E 013°52'15 7.5
2015-Jul-31 06:33N 40°47' E 014°12'5 5.2
2015-Jul-31 05:33N 40°46' E 014°05'9 0.6
2015-Jul-30 13:34N 40°49' E 014°16'3 2.7
2015-Jul-30 12:33N 40°48' E 014°13'1313.1
2015-Jul-30 11:33N 40°45' E 013°56'1413.2
2015-Jul-30 10:28N 40°49' E 014°14'2 0.6
2015-Jul-30 06:33N 40°47' E 014°12'6 5.7
2015-Jul-30 05:34N 40°46' E 014°05'9 0.7
2015-Jul-29 15:32N 40°50' E 014°16'1616.3
2015-Jul-29 14:33N 40°45' E 013°56'13 6.4
2015-Jul-29 12:32N 40°48' E 014°13'1313.2
2015-Jul-29 11:33N 40°45' E 013°56'1412.7
2015-Jul-29 10:27N 40°50' E 014°14'2 0.4
2015-Jul-29 06:33N 40°48' E 014°13'7 7.3
2015-Jul-29 05:34N 40°46' E 014°04'11 0.7
2015-Jul-28 15:29N 40°50' E 014°17'1617.5
2015-Jul-28 14:33N 40°45' E 013°56'13 6.4
2015-Jul-28 12:31N 40°48' E 014°13'1313.6
2015-Jul-28 11:33N 40°45' E 013°56'1412.2
2015-Jul-28 10:24N 40°50' E 014°14'3 2.2
2015-Jul-28 09:12N 40°49' E 014°17'2 1.3
2015-Jul-28 07:26N 40°49' E 014°14'2 2.1
2015-Jul-28 06:31N 40°48' E 014°13'7 7.5
2015-Jul-28 05:34N 40°47' E 014°03'9 0.6
2015-Jul-27 15:25N 40°50' E 014°14'8 9.2
2015-Jul-27 14:34N 40°45' E 014°05'1010.2
2015-Jul-27 13:33N 40°44' E 013°52'0 0.0
2015-Jul-27 12:33N 40°44' E 013°52'8 7.8
2015-Jul-27 11:34N 40°45' E 014°02'12 5.8
2015-Jul-27 09:24N 40°50' E 014°17'1619.2
2015-Jul-27 08:33N 40°45' E 013°56'16 1.1
2015-Jul-26 18:14N 40°50' E 014°17'1623.8
2015-Jul-26 17:33N 40°45' E 013°56'9 9.1
2015-Jul-26 16:34N 40°46' E 014°08'7 7.3
2015-Jul-26 15:34N 40°44' E 013°59'2 2.0
2015-Jul-26 14:33N 40°45' E 013°56'0 0.0
2015-Jul-26 13:33N 40°45' E 013°56'0 0.0
2015-Jul-26 12:33N 40°45' E 013°56'0 0.0
2015-Jul-26 11:34N 40°45' E 013°56'1111.2
2015-Jul-26 10:34N 40°47' E 014°11'5 4.7
2015-Jul-26 09:25N 40°50' E 014°17'1618.8
2015-Jul-26 08:34N 40°45' E 013°56'6 5.7
2015-Jul-26 07:34N 40°45' E 014°04'9 0.6
2015-Jul-25 15:33N 40°49' E 014°14'9 8.8
2015-Jul-25 14:34N 40°45' E 014°04'10 9.4
2015-Jul-25 13:33N 40°44' E 013°52'0 0.0
2015-Jul-25 12:33N 40°44' E 013°52'1111.6
2015-Jul-25 11:34N 40°46' E 014°07'8 8.2
2015-Jul-25 10:33N 40°49' E 014°17'1616.0
2015-Jul-25 09:33N 40°45' E 013°56'0 0.0
2015-Jul-25 08:33N 40°45' E 013°56'7 6.7
2015-Jul-25 07:33N 40°46' E 014°05'2 0.1
2015-Jul-24 17:33N 40°47' E 014°08'4 4.3
2015-Jul-24 16:34N 40°47' E 014°02'1211.5
2015-Jul-24 15:33N 40°50' E 014°17'1616.3
2015-Jul-24 14:33N 40°45' E 013°56'13 6.3
2015-Jul-24 12:33N 40°48' E 014°13'8 8.2
2015-Jul-24 11:34N 40°46' E 014°02'12 8.6
2015-Jul-24 10:11N 40°50' E 014°17'1625.7
2015-Jul-24 09:34N 40°46' E 013°56'1 1.4
2015-Jul-24 08:34N 40°46' E 013°54'13 6.6
2015-Jul-24 06:34N 40°47' E 014°12'6 6.0
2015-Jul-24 05:34N 40°46' E 014°04'  
Track history (hours):
 
Tides and Currents Weather Stations Pressure Air Temp Water Temp Dewpoint Dewpoint Depression Visibility Wind Speed Wind Dir Waves Ship Positions

Giove Jet

Last reported at 2015-Aug-02 16:21 UTC. Time now 2015-Aug-02 22:29 UTC.
Position N 40°50' E 014°14'.

Length 33 m; draft 1.2 m.

MMSI: 247049500.

Date/timePositionNaut miles runAvg speedWind from/ knotsBaromVisibWave heightAir tempDewpointWater temp
2015-Aug-02 16:21N 40°50' E 014°14'1113.3
2015-Aug-02 15:33N 40°44' E 014°02'4 3.9
2015-Aug-02 14:33N 40°45' E 013°56'0 0.0
2015-Aug-02 13:33N 40°45' E 013°56'0 0.0
2015-Aug-02 12:33N 40°45' E 013°56'0 0.1
2015-Aug-02 11:33N 40°45' E 013°56'1412.7
2015-Aug-02 10:28N 40°50' E 014°14'3 2.4
2015-Aug-02 09:21N 40°49' E 014°17'1620.6
2015-Aug-02 08:34N 40°45' E 013°56'6 6.0
2015-Aug-02 07:34N 40°45' E 014°04'8 0.6
2015-Aug-01 16:24N 40°50' E 014°14'2 2.6
2015-Aug-01 15:32N 40°50' E 014°17'1616.7
2015-Aug-01 14:33N 40°45' E 013°56'13 6.4
2015-Aug-01 12:32N 40°48' E 014°13'1313.4
2015-Aug-01 11:33N 40°45' E 013°56'1412.4
2015-Aug-01 10:26N 40°50' E 014°14'2 2.3
2015-Aug-01 09:20N 40°50' E 014°17'1620.9
2015-Aug-01 08:33N 40°45' E 013°56'6 6.0
2015-Aug-01 07:34N 40°45' E 014°04'3 0.2
2015-Jul-31 17:34N 40°46' E 014°00'3 3.3
2015-Jul-31 16:33N 40°45' E 013°56'1515.0
2015-Jul-31 15:33N 40°49' E 014°16'8 8.5
2015-Jul-31 14:34N 40°46' E 014°05'1010.1
2015-Jul-31 13:33N 40°44' E 013°52'0 0.0
2015-Jul-31 12:30N 40°44' E 013°52'5 5.7
2015-Jul-31 11:33N 40°46' E 013°58'1510.8
2015-Jul-31 10:11N 40°49' E 014°17'1626.0
2015-Jul-31 09:34N 40°46' E 013°56'3 3.1
2015-Jul-31 08:34N 40°46' E 013°52'15 7.5
2015-Jul-31 06:33N 40°47' E 014°12'5 5.2
2015-Jul-31 05:33N 40°46' E 014°05'9 0.6
2015-Jul-30 13:34N 40°49' E 014°16'3 2.7
2015-Jul-30 12:33N 40°48' E 014°13'1313.1
2015-Jul-30 11:33N 40°45' E 013°56'1413.2
2015-Jul-30 10:28N 40°49' E 014°14'2 0.6
2015-Jul-30 06:33N 40°47' E 014°12'6 5.7
2015-Jul-30 05:34N 40°46' E 014°05'9 0.7
2015-Jul-29 15:32N 40°50' E 014°16'1616.3
2015-Jul-29 14:33N 40°45' E 013°56'13 6.4
2015-Jul-29 12:32N 40°48' E 014°13'1313.2
2015-Jul-29 11:33N 40°45' E 013°56'1412.7
2015-Jul-29 10:27N 40°50' E 014°14'2 0.4
2015-Jul-29 06:33N 40°48' E 014°13'7 7.3
2015-Jul-29 05:34N 40°46' E 014°04'11 0.7
2015-Jul-28 15:29N 40°50' E 014°17'1617.5
2015-Jul-28 14:33N 40°45' E 013°56'13 6.4
2015-Jul-28 12:31N 40°48' E 014°13'1313.6
2015-Jul-28 11:33N 40°45' E 013°56'1412.2
2015-Jul-28 10:24N 40°50' E 014°14'3 2.2
2015-Jul-28 09:12N 40°49' E 014°17'2 1.3
2015-Jul-28 07:26N 40°49' E 014°14'2 2.1
2015-Jul-28 06:31N 40°48' E 014°13'7 7.5
2015-Jul-28 05:34N 40°47' E 014°03'9 0.6
2015-Jul-27 15:25N 40°50' E 014°14'8 9.2
2015-Jul-27 14:34N 40°45' E 014°05'1010.2
2015-Jul-27 13:33N 40°44' E 013°52'0 0.0
2015-Jul-27 12:33N 40°44' E 013°52'8 7.8
2015-Jul-27 11:34N 40°45' E 014°02'12 5.8
2015-Jul-27 09:24N 40°50' E 014°17'1619.2
2015-Jul-27 08:33N 40°45' E 013°56'16 1.1
2015-Jul-26 18:14N 40°50' E 014°17'1623.8
2015-Jul-26 17:33N 40°45' E 013°56'9 9.1
2015-Jul-26 16:34N 40°46' E 014°08'7 7.3
2015-Jul-26 15:34N 40°44' E 013°59'2 2.0
2015-Jul-26 14:33N 40°45' E 013°56'0 0.0
2015-Jul-26 13:33N 40°45' E 013°56'0 0.0
2015-Jul-26 12:33N 40°45' E 013°56'0 0.0
2015-Jul-26 11:34N 40°45' E 013°56'1111.2
2015-Jul-26 10:34N 40°47' E 014°11'5 4.7
2015-Jul-26 09:25N 40°50' E 014°17'1618.8
2015-Jul-26 08:34N 40°45' E 013°56'6 5.7
2015-Jul-26 07:34N 40°45' E 014°04'9 0.6
2015-Jul-25 15:33N 40°49' E 014°14'9 8.8
2015-Jul-25 14:34N 40°45' E 014°04'10 9.4
2015-Jul-25 13:33N 40°44' E 013°52'0 0.0
2015-Jul-25 12:33N 40°44' E 013°52'1111.6
2015-Jul-25 11:34N 40°46' E 014°07'8 8.2
2015-Jul-25 10:33N 40°49' E 014°17'1616.0
2015-Jul-25 09:33N 40°45' E 013°56'0 0.0
2015-Jul-25 08:33N 40°45' E 013°56'7 6.7
2015-Jul-25 07:33N 40°46' E 014°05'2 0.1
2015-Jul-24 17:33N 40°47' E 014°08'4 4.3
2015-Jul-24 16:34N 40°47' E 014°02'1211.5
2015-Jul-24 15:33N 40°50' E 014°17'1616.3
2015-Jul-24 14:33N 40°45' E 013°56'13 6.3
2015-Jul-24 12:33N 40°48' E 014°13'8 8.2
2015-Jul-24 11:34N 40°46' E 014°02'12 8.6
2015-Jul-24 10:11N 40°50' E 014°17'1625.7
2015-Jul-24 09:34N 40°46' E 013°56'1 1.4
2015-Jul-24 08:34N 40°46' E 013°54'13 6.6
2015-Jul-24 06:34N 40°47' E 014°12'6 6.0
2015-Jul-24 05:34N 40°46' E 014°04'  

Dump ship's entire track history